createdAt,value
2023-10-23T00:00:06.960Z,49.94
2023-10-23T00:01:08.560Z,49.96
2023-10-23T00:02:10.107Z,49.86
2023-10-23T00:03:11.676Z,49.99
2023-10-23T00:04:13.409Z,49.73
2023-10-23T00:05:15.327Z,49.70
2023-10-23T00:06:16.910Z,49.85
2023-10-23T00:07:18.481Z,49.92
2023-10-23T00:08:19.975Z,49.78
2023-10-23T00:09:21.449Z,49.61
2023-10-23T00:10:22.973Z,49.84
2023-10-23T00:11:24.460Z,49.58
2023-10-23T00:12:26.097Z,49.69
2023-10-23T00:13:27.606Z,49.67
2023-10-23T00:14:29.100Z,49.46
2023-10-23T00:15:30.632Z,49.74
2023-10-23T00:16:32.154Z,49.61
2023-10-23T00:17:33.683Z,49.79
2023-10-23T00:18:35.221Z,49.59
2023-10-23T00:19:36.768Z,49.57
2023-10-23T00:20:38.268Z,49.55
2023-10-23T00:21:39.770Z,49.81
2023-10-23T00:22:41.320Z,49.62
2023-10-23T00:23:42.803Z,49.58
2023-10-23T00:24:44.466Z,49.50
2023-10-23T00:25:45.969Z,49.78
2023-10-23T00:26:47.436Z,49.40
2023-10-23T00:27:48.986Z,49.46
2023-10-23T00:28:50.455Z,49.56
2023-10-23T00:29:52.094Z,49.43
2023-10-23T00:30:53.653Z,49.55
2023-10-23T00:31:55.148Z,49.40
2023-10-23T00:32:56.699Z,49.56
2023-10-23T00:33:58.249Z,49.41
2023-10-23T00:35:00.034Z,49.54
2023-10-23T00:36:01.537Z,49.51
2023-10-23T00:37:02.992Z,49.43
2023-10-23T00:38:04.494Z,49.69
2023-10-23T00:39:05.994Z,49.53
2023-10-23T00:40:07.709Z,49.42
2023-10-23T00:41:09.212Z,49.50
2023-10-23T00:42:10.696Z,49.58
2023-10-23T00:43:12.185Z,49.65
2023-10-23T00:44:13.642Z,49.64
2023-10-23T00:45:15.524Z,49.82
2023-10-23T00:46:17.065Z,49.62
2023-10-23T00:47:18.555Z,49.65
2023-10-23T00:48:20.022Z,49.69
2023-10-23T00:49:21.508Z,49.86
2023-10-23T00:50:23.019Z,49.64
2023-10-23T00:51:24.561Z,49.64
2023-10-23T00:52:26.156Z,49.80
2023-10-23T00:53:27.625Z,49.79
2023-10-23T00:54:29.181Z,49.67
2023-10-23T00:55:30.677Z,49.75
2023-10-23T00:56:32.172Z,49.70
2023-10-23T00:57:33.799Z,49.72
2023-10-23T00:58:35.352Z,49.74
2023-10-23T00:59:36.832Z,49.78
2023-10-23T01:00:38.434Z,49.64
2023-10-23T01:01:40.164Z,49.73
2023-10-23T01:02:41.751Z,49.75
2023-10-23T01:03:43.445Z,49.76
2023-10-23T01:04:44.976Z,49.72
2023-10-23T01:05:46.469Z,49.93
2023-10-23T01:06:47.974Z,49.87
2023-10-23T01:07:49.478Z,49.71
2023-10-23T01:08:50.947Z,49.97
2023-10-23T01:09:52.442Z,50.01
2023-10-23T01:10:53.961Z,49.90
2023-10-23T01:11:55.473Z,49.93
2023-10-23T01:12:56.968Z,49.95
2023-10-23T01:13:58.449Z,49.96
2023-10-23T01:14:59.925Z,50.02
2023-10-23T01:16:01.394Z,49.92
2023-10-23T01:17:02.884Z,50.13
2023-10-23T01:18:04.384Z,50.10
2023-10-23T01:19:05.863Z,50.20
2023-10-23T01:20:07.322Z,50.09
2023-10-23T01:21:08.788Z,50.11
2023-10-23T01:22:10.274Z,50.37
2023-10-23T01:23:11.772Z,50.18
2023-10-23T01:24:13.242Z,50.11
2023-10-23T01:25:14.765Z,50.26
2023-10-23T01:26:16.289Z,50.30
2023-10-23T01:27:17.846Z,50.19
2023-10-23T01:28:19.322Z,50.05
2023-10-23T01:29:20.988Z,50.35
2023-10-23T01:30:22.566Z,50.33
2023-10-23T01:31:24.098Z,50.41
2023-10-23T01:32:25.598Z,50.21
2023-10-23T01:33:27.113Z,50.22
2023-10-23T01:34:28.668Z,50.41
2023-10-23T01:35:30.164Z,50.15
2023-10-23T01:36:31.632Z,50.31
2023-10-23T01:37:33.125Z,50.25
2023-10-23T01:38:34.596Z,50.41
2023-10-23T01:39:36.127Z,50.26
2023-10-23T01:40:37.673Z,50.39
2023-10-23T01:41:39.173Z,50.23
2023-10-23T01:42:40.922Z,50.22
2023-10-23T01:43:42.416Z,50.26
2023-10-23T01:44:44.082Z,50.02
2023-10-23T01:45:45.662Z,50.21
2023-10-23T01:46:47.185Z,50.08
2023-10-23T01:47:48.793Z,50.18
2023-10-23T01:48:50.361Z,50.15
2023-10-23T01:49:52.009Z,50.19
2023-10-23T01:50:53.502Z,50.13
2023-10-23T01:51:55.069Z,50.06
2023-10-23T01:52:56.570Z,50.11
2023-10-23T01:53:58.047Z,50.11
2023-10-23T01:54:59.669Z,50.26
2023-10-23T01:56:01.177Z,50.31
2023-10-23T01:57:02.676Z,50.13
2023-10-23T01:58:04.171Z,50.16
2023-10-23T01:59:05.642Z,50.06
2023-10-23T02:00:07.135Z,50.18
2023-10-23T02:01:08.637Z,50.18
2023-10-23T02:02:10.172Z,49.91
2023-10-23T02:03:11.717Z,50.14
2023-10-23T02:04:13.325Z,49.96
2023-10-23T02:05:14.992Z,50.07
2023-10-23T02:06:16.500Z,49.99
2023-10-23T02:07:17.978Z,50.02
2023-10-23T02:08:19.438Z,50.13
2023-10-23T02:09:20.906Z,50.18
2023-10-23T02:10:22.437Z,50.24
2023-10-23T02:11:23.996Z,50.05
2023-10-23T02:12:25.658Z,49.93
2023-10-23T02:13:27.481Z,49.99
2023-10-23T02:14:29.047Z,49.98
2023-10-23T02:15:30.630Z,49.84
2023-10-23T02:16:32.285Z,50.07
2023-10-23T02:17:33.914Z,49.82
2023-10-23T02:18:35.518Z,49.87
2023-10-23T02:19:37.362Z,49.95
2023-10-23T02:20:38.854Z,49.66
2023-10-23T02:21:40.401Z,49.75
2023-10-23T02:22:41.919Z,49.61
2023-10-23T02:23:55.400Z,49.70
2023-10-23T02:24:58.039Z,49.80
2023-10-23T02:26:00.554Z,49.56
2023-10-23T02:27:02.043Z,49.52
2023-10-23T02:28:03.925Z,49.63
2023-10-23T02:29:05.439Z,49.48
2023-10-23T02:30:06.935Z,49.61
2023-10-23T02:31:08.481Z,49.60
2023-10-23T02:32:10.088Z,49.63
2023-10-23T02:33:11.683Z,49.53
2023-10-23T02:34:13.549Z,49.72
2023-10-23T02:35:15.024Z,49.79
2023-10-23T02:36:16.503Z,49.76
2023-10-23T02:37:18.013Z,49.66
2023-10-23T02:38:19.550Z,49.45
2023-10-23T02:39:21.066Z,49.76
2023-10-23T02:40:23.321Z,49.58
2023-10-23T02:41:24.899Z,49.41
2023-10-23T02:42:26.479Z,49.44
2023-10-23T02:43:28.012Z,49.52
2023-10-23T02:44:29.493Z,49.74
2023-10-23T02:45:32.893Z,49.60
2023-10-23T02:46:34.484Z,49.46
2023-10-23T02:47:36.068Z,49.54
2023-10-23T02:48:37.669Z,49.50
2023-10-23T02:49:39.411Z,49.49
2023-10-23T02:50:41.171Z,49.59
2023-10-23T02:51:42.688Z,49.59
2023-10-23T02:52:44.259Z,49.59
2023-10-23T02:53:45.785Z,49.42
2023-10-23T02:54:47.376Z,49.46
2023-10-23T02:55:48.898Z,49.48
2023-10-23T02:56:50.397Z,49.29
2023-10-23T02:57:52.002Z,49.51
2023-10-23T02:58:53.537Z,49.48
2023-10-23T02:59:55.054Z,49.34
2023-10-23T03:00:56.572Z,49.42
2023-10-23T03:01:58.088Z,49.41
2023-10-23T03:02:59.625Z,49.33
2023-10-23T03:04:01.244Z,49.34
2023-10-23T03:05:02.801Z,49.16
2023-10-23T03:06:04.343Z,49.15
2023-10-23T03:07:05.909Z,49.18
2023-10-23T03:08:07.390Z,49.35
2023-10-23T03:09:09.695Z,49.29
2023-10-23T03:10:12.143Z,49.32
2023-10-23T03:11:13.700Z,49.34
2023-10-23T03:12:15.305Z,49.34
2023-10-23T03:13:16.862Z,49.17
2023-10-23T03:14:18.417Z,49.32
2023-10-23T03:15:20.016Z,49.36
2023-10-23T03:16:22.934Z,49.33
2023-10-23T03:17:24.440Z,49.47
2023-10-23T03:18:26.053Z,49.41
2023-10-23T03:19:27.540Z,49.23
2023-10-23T03:20:28.986Z,49.37
2023-10-23T03:21:30.589Z,49.03
2023-10-23T03:22:32.094Z,49.15
2023-10-23T03:23:33.586Z,49.25
2023-10-23T03:24:35.100Z,49.21
2023-10-23T03:25:36.714Z,49.18
2023-10-23T03:26:38.218Z,49.12
2023-10-23T03:27:40.075Z,49.28
2023-10-23T03:28:41.594Z,49.37
2023-10-23T03:29:43.068Z,49.11
2023-10-23T03:30:44.688Z,49.20
2023-10-23T03:31:46.315Z,49.07
2023-10-23T03:32:47.851Z,49.19
2023-10-23T03:33:49.440Z,49.18
2023-10-23T03:34:51.032Z,49.08
2023-10-23T03:35:52.643Z,49.17
2023-10-23T03:36:54.197Z,49.17
2023-10-23T03:37:56.141Z,49.10
2023-10-23T03:38:57.638Z,49.19
2023-10-23T03:39:59.110Z,49.02
2023-10-23T03:41:00.885Z,49.13
2023-10-23T03:42:02.354Z,49.18
2023-10-23T03:43:03.916Z,49.24
2023-10-23T03:44:08.085Z,49.29
2023-10-23T03:45:09.537Z,49.21
2023-10-23T03:46:11.059Z,48.95
2023-10-23T03:47:12.574Z,49.12
2023-10-23T03:48:15.503Z,49.02
2023-10-23T03:49:17.044Z,49.27
2023-10-23T03:50:18.773Z,49.26
2023-10-23T03:51:20.317Z,49.22
2023-10-23T03:52:21.801Z,49.21
2023-10-23T03:53:23.361Z,49.09
2023-10-23T03:54:24.999Z,49.25
2023-10-23T03:55:26.493Z,49.19
2023-10-23T03:56:29.714Z,49.09
2023-10-23T03:57:31.210Z,49.12
2023-10-23T03:58:32.798Z,49.17
2023-10-23T03:59:34.302Z,49.23
2023-10-23T04:00:35.825Z,49.14
2023-10-23T04:01:37.414Z,49.20
2023-10-23T04:02:39.164Z,49.24
2023-10-23T04:03:42.218Z,49.19
2023-10-23T04:04:43.787Z,49.10
2023-10-23T04:05:45.337Z,49.27
2023-10-23T04:06:46.817Z,49.18
2023-10-23T04:07:48.364Z,49.16
2023-10-23T04:08:49.914Z,49.26
2023-10-23T04:09:51.422Z,49.18
2023-10-23T04:10:52.926Z,49.15
2023-10-23T04:11:54.369Z,49.29
2023-10-23T04:12:58.419Z,49.25
2023-10-23T04:13:59.948Z,49.20
2023-10-23T04:15:03.059Z,49.14
2023-10-23T04:16:05.364Z,49.11
2023-10-23T04:17:06.940Z,49.07
2023-10-23T04:18:08.426Z,49.12
2023-10-23T04:19:09.998Z,49.18
2023-10-23T04:20:11.519Z,49.15
2023-10-23T04:21:12.990Z,49.00
2023-10-23T04:22:14.451Z,49.08
2023-10-23T04:23:16.182Z,49.03
2023-10-23T04:24:17.725Z,49.12
2023-10-23T04:25:19.219Z,49.21
2023-10-23T04:26:20.714Z,49.18
2023-10-23T04:27:23.327Z,49.17
2023-10-23T04:28:24.976Z,49.33
2023-10-23T04:29:26.453Z,49.35
2023-10-23T04:30:30.357Z,49.34
2023-10-23T04:31:31.867Z,49.38
2023-10-23T04:32:34.452Z,49.36
2023-10-23T04:33:35.934Z,49.49
2023-10-23T04:34:37.512Z,49.48
2023-10-23T04:35:39.055Z,49.31
2023-10-23T04:36:40.646Z,49.47
2023-10-23T04:37:43.008Z,49.38
2023-10-23T04:38:44.511Z,49.60
2023-10-23T04:39:46.067Z,49.40
2023-10-23T04:40:47.652Z,49.53
2023-10-23T04:41:49.405Z,49.22
2023-10-23T04:42:50.942Z,49.41
2023-10-23T04:43:52.521Z,49.42
2023-10-23T04:44:54.081Z,49.40
2023-10-23T04:45:55.802Z,49.32
2023-10-23T04:46:57.428Z,49.42
2023-10-23T04:47:58.944Z,49.40
2023-10-23T04:49:00.476Z,49.41
2023-10-23T04:50:02.044Z,49.36
2023-10-23T04:51:04.701Z,49.30
2023-10-23T04:52:06.301Z,49.40
2023-10-23T04:53:07.807Z,49.27
2023-10-23T04:54:09.405Z,49.34
2023-10-23T04:55:11.135Z,49.30
2023-10-23T04:56:12.672Z,49.41
2023-10-23T04:57:14.180Z,49.41
2023-10-23T04:58:15.845Z,49.36
2023-10-23T04:59:17.446Z,49.37
2023-10-23T05:00:18.972Z,49.53
2023-10-23T05:01:20.610Z,49.50
2023-10-23T05:02:22.139Z,49.43
2023-10-23T05:03:23.707Z,49.51
2023-10-23T05:04:25.350Z,49.56
2023-10-23T05:05:27.067Z,49.57
2023-10-23T05:06:28.653Z,49.46
2023-10-23T05:07:30.160Z,49.39
2023-10-23T05:08:31.630Z,49.49
2023-10-23T05:09:33.378Z,49.60
2023-10-23T05:10:34.880Z,49.30
2023-10-23T05:11:36.458Z,49.48
2023-10-23T05:12:37.958Z,49.39
2023-10-23T05:13:39.478Z,49.43
2023-10-23T05:14:40.985Z,49.46
2023-10-23T05:15:42.616Z,49.51
2023-10-23T05:16:44.199Z,49.59
2023-10-23T05:17:45.739Z,49.58
2023-10-23T05:18:47.245Z,49.50
2023-10-23T05:19:48.766Z,49.45
2023-10-23T05:20:50.244Z,49.55
2023-10-23T05:21:51.748Z,49.53
2023-10-23T05:22:53.300Z,49.50
2023-10-23T05:23:54.766Z,49.54
2023-10-23T05:24:58.395Z,49.38
2023-10-23T05:25:59.883Z,49.52
2023-10-23T05:27:01.354Z,49.38
2023-10-23T05:28:02.851Z,49.45
2023-10-23T05:29:04.520Z,49.58
2023-10-23T05:30:06.440Z,49.57
2023-10-23T05:31:10.166Z,49.48
2023-10-23T05:32:11.636Z,49.57
2023-10-23T05:33:13.140Z,49.54
2023-10-23T05:34:14.616Z,49.52
2023-10-23T05:35:16.332Z,49.59
2023-10-23T05:36:17.811Z,49.60
2023-10-23T05:37:19.403Z,49.79
2023-10-23T05:38:20.889Z,49.85
2023-10-23T05:39:22.428Z,49.76
2023-10-23T05:40:23.921Z,49.74
2023-10-23T05:41:25.421Z,49.70
2023-10-23T05:42:27.076Z,49.85
2023-10-23T05:43:28.731Z,49.91
2023-10-23T05:44:30.270Z,49.98
2023-10-23T05:45:34.777Z,49.78
2023-10-23T05:46:36.481Z,49.91
2023-10-23T05:47:38.070Z,49.72
2023-10-23T05:48:39.567Z,50.02
2023-10-23T05:49:41.069Z,50.03
2023-10-23T05:50:42.689Z,49.91
2023-10-23T05:51:44.190Z,50.03
2023-10-23T05:52:45.719Z,50.14
2023-10-23T05:53:47.484Z,50.02
2023-10-23T05:54:49.078Z,50.18
2023-10-23T05:55:50.581Z,50.15
2023-10-23T05:56:52.134Z,50.29
2023-10-23T05:57:53.689Z,50.32
2023-10-23T05:58:55.219Z,50.23
2023-10-23T05:59:56.741Z,50.02
2023-10-23T06:00:58.362Z,50.41
2023-10-23T06:01:59.975Z,50.41
2023-10-23T06:03:01.505Z,50.42
2023-10-23T06:04:03.119Z,50.52
2023-10-23T06:05:04.638Z,50.37
2023-10-23T06:06:06.136Z,50.52
2023-10-23T06:07:07.760Z,50.49
2023-10-23T06:08:10.388Z,50.46
2023-10-23T06:09:12.036Z,50.64
2023-10-23T06:10:13.659Z,50.67
2023-10-23T06:11:15.155Z,50.58
2023-10-23T06:12:16.669Z,50.57
2023-10-23T06:13:18.153Z,50.59
2023-10-23T06:14:19.602Z,50.52
2023-10-23T06:15:21.115Z,50.52
2023-10-23T06:16:22.692Z,50.54
2023-10-23T06:17:25.099Z,50.57
2023-10-23T06:18:30.512Z,50.53
2023-10-23T06:19:32.775Z,50.57
2023-10-23T06:20:34.376Z,50.73
2023-10-23T06:21:36.332Z,50.53
2023-10-23T06:22:37.967Z,50.72
2023-10-23T06:23:39.452Z,50.62
2023-10-23T06:24:41.005Z,50.79
2023-10-23T06:25:42.785Z,50.74
2023-10-23T06:26:44.882Z,50.81
2023-10-23T06:27:46.543Z,50.77
2023-10-23T06:28:49.041Z,50.69
2023-10-23T06:29:50.500Z,50.65
2023-10-23T06:30:52.005Z,50.59
2023-10-23T06:31:53.766Z,50.70
2023-10-23T06:32:55.262Z,50.78
2023-10-23T06:33:56.803Z,50.60
2023-10-23T06:34:59.066Z,50.88
2023-10-23T06:36:00.682Z,50.78
2023-10-23T06:37:02.231Z,50.79
2023-10-23T06:38:03.814Z,50.88
2023-10-23T06:39:05.388Z,50.84
2023-10-23T06:40:06.858Z,50.99
2023-10-23T06:41:08.316Z,50.81
2023-10-23T06:42:10.190Z,50.99
2023-10-23T06:43:11.974Z,50.80
2023-10-23T06:44:13.447Z,50.88
2023-10-23T06:45:15.273Z,50.86
2023-10-23T06:46:16.782Z,50.88
2023-10-23T06:47:18.914Z,50.86
2023-10-23T06:48:20.454Z,51.02
2023-10-23T06:49:22.094Z,50.90
2023-10-23T06:50:23.638Z,50.99
2023-10-23T06:51:25.289Z,51.10
2023-10-23T06:52:26.774Z,50.96
2023-10-23T06:53:28.265Z,51.11
2023-10-23T06:54:29.773Z,50.96
2023-10-23T06:55:31.267Z,50.95
2023-10-23T06:56:33.017Z,51.05
2023-10-23T06:57:35.272Z,50.96
2023-10-23T06:58:36.728Z,51.06
2023-10-23T06:59:38.241Z,51.18
2023-10-23T07:00:42.349Z,51.20
2023-10-23T07:01:45.378Z,51.06
2023-10-23T07:02:47.110Z,50.93
2023-10-23T07:03:48.714Z,51.36
2023-10-23T07:04:50.222Z,51.37
2023-10-23T07:05:52.097Z,51.40
2023-10-23T07:06:53.737Z,51.46
2023-10-23T07:07:55.195Z,51.42
2023-10-23T07:08:57.062Z,51.52
2023-10-23T07:09:58.632Z,51.75
2023-10-23T07:11:00.077Z,51.73
2023-10-23T07:12:01.742Z,51.93
2023-10-23T07:13:11.211Z,51.91
2023-10-23T07:14:21.130Z,51.84
2023-10-23T07:15:22.826Z,51.94
2023-10-23T07:16:26.855Z,52.14
2023-10-23T07:17:28.442Z,52.23
2023-10-23T07:18:31.528Z,52.33
2023-10-23T07:19:33.120Z,52.50
2023-10-23T07:20:34.582Z,52.53
2023-10-23T07:21:37.183Z,52.55
2023-10-23T07:22:38.688Z,52.69
2023-10-23T07:23:40.302Z,52.93
2023-10-23T07:24:42.065Z,52.97
2023-10-23T07:25:43.547Z,52.89
2023-10-23T07:26:45.090Z,53.13
2023-10-23T07:27:46.623Z,53.21
2023-10-23T07:28:48.151Z,53.34
2023-10-23T07:29:52.323Z,53.31
2023-10-23T07:30:53.921Z,53.26
2023-10-23T07:31:57.176Z,53.47
2023-10-23T07:32:58.671Z,53.35
2023-10-23T07:34:01.174Z,53.57
2023-10-23T07:35:02.706Z,53.54
2023-10-23T07:36:04.203Z,53.73
2023-10-23T07:37:05.732Z,53.76
2023-10-23T07:38:07.473Z,53.74
2023-10-23T07:39:09.069Z,53.88
2023-10-23T07:40:10.642Z,54.01
2023-10-23T07:41:12.247Z,54.20
2023-10-23T07:42:13.779Z,54.25
2023-10-23T07:43:15.357Z,54.60
2023-10-23T07:44:16.998Z,54.42
2023-10-23T07:45:18.637Z,54.61
2023-10-23T07:46:20.187Z,54.78
2023-10-23T07:47:22.086Z,55.02
2023-10-23T07:48:24.820Z,55.08
2023-10-23T07:49:29.368Z,55.15
2023-10-23T07:50:30.814Z,55.30
2023-10-23T07:51:32.296Z,55.44
2023-10-23T07:52:33.756Z,55.58
2023-10-23T07:53:35.331Z,55.81
2023-10-23T07:54:36.860Z,56.02
2023-10-23T07:55:38.345Z,56.18
2023-10-23T07:56:39.828Z,56.09
2023-10-23T07:57:43.898Z,55.98
2023-10-23T07:58:46.169Z,55.93
2023-10-23T07:59:47.644Z,56.08
2023-10-23T08:00:50.239Z,55.98
2023-10-23T08:01:51.801Z,55.95
2023-10-23T08:02:53.473Z,55.68
2023-10-23T08:03:55.279Z,55.65
2023-10-23T08:04:56.929Z,55.56
2023-10-23T08:05:58.487Z,55.38
2023-10-23T08:06:59.961Z,55.35
2023-10-23T08:08:01.552Z,55.50
2023-10-23T08:09:03.035Z,55.48
2023-10-23T08:10:04.642Z,55.33
2023-10-23T08:11:06.144Z,55.29
2023-10-23T08:12:07.707Z,55.37
2023-10-23T08:13:09.233Z,55.38
2023-10-23T08:14:13.963Z,55.14
2023-10-23T08:15:15.448Z,55.10
2023-10-23T08:16:17.212Z,54.82
2023-10-23T08:17:31.140Z,54.46
2023-10-23T08:18:41.904Z,54.13
2023-10-23T08:19:43.959Z,53.69
2023-10-23T08:20:45.576Z,53.47
2023-10-23T08:21:47.077Z,53.36
2023-10-23T08:22:48.561Z,53.08
2023-10-23T08:23:50.051Z,53.18
2023-10-23T08:24:51.613Z,52.96
2023-10-23T08:25:53.120Z,52.70
2023-10-23T08:26:54.602Z,52.40
2023-10-23T08:27:56.221Z,52.71
2023-10-23T08:29:02.953Z,52.30
2023-10-23T08:30:05.234Z,52.22
2023-10-23T08:31:16.722Z,52.11
2023-10-23T08:32:28.821Z,51.83
2023-10-23T08:33:35.782Z,52.03
2023-10-23T08:34:37.360Z,51.35
2023-10-23T08:35:38.949Z,51.70
2023-10-23T08:36:40.452Z,51.11
2023-10-23T08:37:42.158Z,50.99
2023-10-23T08:38:43.803Z,50.37
2023-10-23T08:39:45.337Z,50.14
2023-10-23T08:40:46.886Z,50.12
2023-10-23T08:41:48.656Z,49.89
2023-10-23T08:42:51.267Z,49.57
2023-10-23T08:43:52.755Z,49.15
2023-10-23T08:44:54.321Z,49.10
2023-10-23T08:45:55.958Z,48.80
2023-10-23T08:46:58.072Z,48.52
2023-10-23T08:47:59.605Z,48.83
2023-10-23T08:49:01.134Z,48.26
2023-10-23T08:50:02.723Z,48.06
2023-10-23T08:51:05.270Z,47.77
2023-10-23T08:52:06.801Z,47.64
2023-10-23T08:53:08.391Z,47.74
2023-10-23T08:54:12.152Z,47.46
2023-10-23T08:55:14.052Z,47.21
2023-10-23T08:56:15.748Z,47.19
2023-10-23T08:57:17.364Z,46.72
2023-10-23T08:58:18.975Z,46.79
2023-10-23T08:59:20.633Z,46.94
2023-10-23T09:00:22.112Z,46.99
2023-10-23T09:01:23.712Z,47.11
2023-10-23T09:02:25.328Z,46.99
2023-10-23T09:04:04.264Z,46.63
2023-10-23T09:04:48.684Z,46.08
2023-10-23T09:05:50.218Z,45.50
2023-10-23T09:06:51.695Z,45.40
2023-10-23T09:07:53.193Z,45.52
2023-10-23T09:08:54.645Z,45.20
2023-10-23T09:09:56.158Z,44.46
2023-10-23T09:10:57.764Z,44.04
2023-10-23T09:11:59.217Z,44.43
2023-10-23T09:13:00.737Z,44.15
2023-10-23T09:14:02.289Z,43.86
2023-10-23T09:15:06.167Z,43.60
2023-10-23T09:16:07.731Z,43.39
2023-10-23T09:17:09.341Z,43.68
2023-10-23T09:18:10.941Z,43.06
2023-10-23T09:19:12.476Z,43.74
2023-10-23T09:20:13.945Z,43.08
2023-10-23T09:21:15.535Z,42.71
2023-10-23T09:22:17.103Z,43.01
2023-10-23T09:23:18.640Z,42.64
2023-10-23T09:24:20.363Z,42.33
2023-10-23T09:25:21.867Z,41.89
2023-10-23T09:26:23.390Z,42.26
2023-10-23T09:27:24.903Z,42.15
2023-10-23T09:28:26.429Z,41.84
2023-10-23T09:29:27.914Z,41.86
2023-10-23T09:30:29.370Z,41.57
2023-10-23T09:31:30.943Z,41.39
2023-10-23T09:32:32.607Z,41.42
2023-10-23T09:33:34.204Z,41.36
2023-10-23T09:34:35.709Z,41.45
2023-10-23T09:35:37.177Z,41.25
2023-10-23T09:36:39.291Z,41.44
2023-10-23T09:37:40.778Z,41.69
2023-10-23T09:38:42.300Z,41.45
2023-10-23T09:39:43.819Z,40.70
2023-10-23T09:40:45.650Z,40.60
2023-10-23T09:41:47.164Z,40.20
2023-10-23T09:42:48.784Z,40.37
2023-10-23T09:43:52.744Z,39.94
2023-10-23T09:44:54.271Z,40.23
2023-10-23T09:45:55.817Z,39.84
2023-10-23T09:46:57.493Z,39.92
2023-10-23T09:47:59.015Z,40.35
2023-10-23T09:49:01.562Z,40.19
2023-10-23T09:50:03.563Z,39.78
2023-10-23T09:51:05.827Z,40.47
2023-10-23T09:52:07.396Z,39.94
2023-10-23T09:53:08.939Z,40.31
2023-10-23T09:54:10.723Z,40.03
2023-10-23T09:55:12.357Z,40.12
2023-10-23T09:56:13.936Z,40.35
2023-10-23T09:57:15.410Z,40.48
2023-10-23T09:58:16.984Z,40.36
2023-10-23T09:59:18.506Z,40.73
2023-10-23T10:00:19.984Z,40.17
2023-10-23T10:01:22.312Z,40.33
2023-10-23T10:02:23.909Z,40.38
2023-10-23T10:03:25.608Z,40.62
2023-10-23T10:04:27.140Z,40.59
2023-10-23T10:05:28.631Z,40.90
2023-10-23T10:06:30.213Z,40.28
2023-10-23T10:07:31.687Z,40.66
2023-10-23T10:08:33.676Z,40.88
2023-10-23T10:09:35.149Z,40.63
2023-10-23T10:10:38.421Z,40.85
2023-10-23T10:11:39.901Z,40.86
2023-10-23T10:12:42.432Z,40.61
2023-10-23T10:13:45.043Z,40.58
2023-10-23T10:14:46.491Z,40.86
2023-10-23T10:15:48.254Z,40.95
2023-10-23T10:16:49.775Z,40.57
2023-10-23T10:17:51.416Z,40.35
2023-10-23T10:18:52.959Z,40.61
2023-10-23T10:19:54.493Z,40.57
2023-10-23T10:20:55.972Z,40.34
2023-10-23T10:21:58.254Z,40.44
2023-10-23T10:23:00.167Z,40.52
2023-10-23T10:24:01.824Z,40.82
2023-10-23T10:25:03.336Z,40.61
2023-10-23T10:26:04.834Z,40.61
2023-10-23T10:27:06.335Z,40.73
2023-10-23T10:28:07.944Z,40.76
2023-10-23T10:29:09.429Z,40.76
2023-10-23T10:30:10.942Z,40.83
2023-10-23T10:31:12.465Z,40.84
2023-10-23T10:32:22.366Z,41.04
2023-10-23T10:34:18.386Z,41.01
2023-10-23T10:34:46.114Z,40.79
2023-10-23T10:35:49.534Z,41.03
2023-10-23T10:36:51.583Z,40.72
2023-10-23T10:37:53.194Z,41.00
2023-10-23T10:38:55.082Z,41.25
2023-10-23T10:39:56.920Z,41.43
2023-10-23T10:40:58.560Z,41.05
2023-10-23T10:42:00.327Z,41.04
2023-10-23T10:43:02.512Z,41.26
2023-10-23T10:44:04.150Z,41.24
2023-10-23T10:45:05.688Z,41.20
2023-10-23T10:46:07.279Z,40.89
2023-10-23T10:47:08.923Z,40.91
2023-10-23T10:48:10.470Z,40.95
2023-10-23T10:49:12.126Z,41.00
2023-10-23T10:50:13.720Z,41.35
2023-10-23T10:51:15.266Z,40.83
2023-10-23T10:52:16.797Z,40.94
2023-10-23T10:53:18.293Z,40.84
2023-10-23T10:54:19.815Z,40.54
2023-10-23T10:55:21.379Z,40.86
2023-10-23T10:56:22.871Z,40.76
2023-10-23T10:57:24.372Z,40.54
2023-10-23T10:58:26.200Z,40.40
2023-10-23T10:59:27.754Z,40.76
2023-10-23T11:00:29.250Z,40.61
2023-10-23T11:01:31.850Z,40.49
2023-10-23T11:02:33.508Z,39.93
2023-10-23T11:03:35.112Z,40.17
2023-10-23T11:04:37.081Z,39.61
2023-10-23T11:05:38.621Z,39.89
2023-10-23T11:06:40.199Z,39.79
2023-10-23T11:07:41.684Z,39.84
2023-10-23T11:08:43.229Z,39.13
2023-10-23T11:09:44.803Z,39.49
2023-10-23T11:10:46.687Z,39.08
2023-10-23T11:11:48.193Z,38.67
2023-10-23T11:12:49.894Z,38.77
2023-10-23T11:13:51.516Z,38.79
2023-10-23T11:14:54.033Z,38.94
2023-10-23T11:15:55.665Z,38.37
2023-10-23T11:16:57.328Z,38.50
2023-10-23T11:17:58.981Z,38.60
2023-10-23T11:19:00.513Z,38.25
2023-10-23T11:20:02.048Z,38.94
2023-10-23T11:21:03.550Z,38.65
2023-10-23T11:22:05.035Z,38.45
2023-10-23T11:23:06.728Z,38.19
2023-10-23T11:24:08.281Z,38.50
2023-10-23T11:25:09.790Z,38.60
2023-10-23T11:26:11.422Z,37.91
2023-10-23T11:27:12.997Z,38.42
2023-10-23T11:28:14.497Z,38.02
2023-10-23T11:29:16.030Z,38.22
2023-10-23T11:30:17.686Z,38.06
2023-10-23T11:31:19.315Z,37.96
2023-10-23T11:32:20.982Z,37.98
2023-10-23T11:33:22.789Z,37.64
2023-10-23T11:34:24.446Z,37.07
2023-10-23T11:35:25.973Z,37.00
2023-10-23T11:36:29.153Z,37.87
2023-10-23T11:37:30.648Z,37.79
2023-10-23T11:38:32.268Z,37.14
2023-10-23T11:39:33.743Z,37.64
2023-10-23T11:40:35.361Z,36.92
2023-10-23T11:41:36.847Z,36.99
2023-10-23T11:42:38.327Z,36.71
2023-10-23T11:43:40.634Z,36.87
2023-10-23T11:44:42.217Z,36.67
2023-10-23T11:45:43.811Z,36.60
2023-10-23T11:46:45.376Z,36.32
2023-10-23T11:47:46.987Z,36.86
2023-10-23T11:48:48.605Z,36.49
2023-10-23T11:49:50.112Z,36.32
2023-10-23T11:50:51.599Z,36.17
2023-10-23T11:51:53.431Z,35.97
2023-10-23T11:52:54.956Z,36.56
2023-10-23T11:53:56.530Z,36.11
2023-10-23T11:54:58.057Z,35.95
2023-10-23T11:55:59.616Z,35.78
2023-10-23T11:57:01.481Z,36.15
2023-10-23T11:58:03.041Z,35.53
2023-10-23T11:59:04.548Z,36.03
2023-10-23T12:00:06.203Z,35.81
2023-10-23T12:01:07.895Z,36.07
2023-10-23T12:02:09.516Z,35.89
2023-10-23T12:03:11.101Z,35.42
2023-10-23T12:04:12.838Z,35.48
2023-10-23T12:05:14.382Z,35.46
2023-10-23T12:06:15.888Z,35.31
2023-10-23T12:07:17.405Z,35.12
2023-10-23T12:08:18.900Z,35.72
2023-10-23T12:09:20.505Z,35.34
2023-10-23T12:10:21.987Z,35.50
2023-10-23T12:11:23.834Z,35.18
2023-10-23T12:12:27.572Z,35.11
2023-10-23T12:13:29.190Z,35.06
2023-10-23T12:14:30.724Z,35.05
2023-10-23T12:15:32.288Z,35.21
2023-10-23T12:16:34.872Z,35.47
2023-10-23T12:17:36.533Z,35.23
2023-10-23T12:18:38.046Z,35.26
2023-10-23T12:19:39.673Z,35.35
2023-10-23T12:20:41.461Z,35.53
2023-10-23T12:21:42.940Z,34.92
2023-10-23T12:22:45.777Z,35.50
2023-10-23T12:23:47.513Z,35.78
2023-10-23T12:24:48.998Z,35.56
2023-10-23T12:25:50.721Z,35.86
2023-10-23T12:26:52.220Z,35.69
2023-10-23T12:27:53.751Z,35.93
2023-10-23T12:28:55.295Z,36.05
2023-10-23T12:29:57.102Z,35.57
2023-10-23T12:30:59.983Z,36.17
2023-10-23T12:32:02.692Z,35.87
2023-10-23T12:33:20.046Z,35.88
2023-10-23T12:34:25.438Z,35.77
2023-10-23T12:35:27.263Z,35.96
2023-10-23T12:36:28.886Z,35.78
2023-10-23T12:37:32.944Z,35.60
2023-10-23T12:38:34.399Z,35.49
2023-10-23T12:39:35.935Z,36.09
2023-10-23T12:40:39.141Z,35.96
2023-10-23T12:41:41.001Z,35.87
2023-10-23T12:42:42.534Z,35.85
2023-10-23T12:43:44.454Z,36.13
2023-10-23T12:44:46.630Z,36.29
2023-10-23T12:45:50.654Z,36.21
2023-10-23T12:46:52.377Z,36.63
2023-10-23T12:47:55.111Z,35.94
2023-10-23T12:48:56.572Z,36.34
2023-10-23T12:49:58.375Z,36.62
2023-10-23T12:50:59.863Z,35.79
2023-10-23T12:52:01.336Z,35.82
2023-10-23T12:53:02.881Z,35.88
2023-10-23T12:54:04.405Z,35.85
2023-10-23T12:55:06.032Z,35.78
2023-10-23T12:56:07.564Z,36.00
2023-10-23T12:57:09.188Z,35.64
2023-10-23T12:58:10.679Z,36.06
2023-10-23T12:59:12.150Z,36.12
2023-10-23T13:00:13.620Z,36.13
2023-10-23T13:01:15.144Z,36.14
2023-10-23T13:02:16.705Z,35.83
2023-10-23T13:03:19.218Z,36.31
2023-10-23T13:04:21.584Z,35.94
2023-10-23T13:05:23.095Z,36.00
2023-10-23T13:06:24.604Z,36.17
2023-10-23T13:07:26.106Z,36.02
2023-10-23T13:08:27.886Z,35.97
2023-10-23T13:09:29.389Z,35.81
2023-10-23T13:10:30.910Z,35.98
2023-10-23T13:11:32.442Z,36.09
2023-10-23T13:12:33.897Z,35.86
2023-10-23T13:13:35.456Z,36.18
2023-10-23T13:14:36.924Z,36.34
2023-10-23T13:15:38.714Z,36.57
2023-10-23T13:16:40.256Z,36.39